createdAt,value
2023-11-24T00:00:38.038Z,86.65
2023-11-24T00:01:40.723Z,86.59
2023-11-24T00:02:43.569Z,86.56
2023-11-24T00:03:46.011Z,86.59
2023-11-24T00:04:48.489Z,86.63
2023-11-24T00:05:51.483Z,86.60
2023-11-24T00:06:54.044Z,86.53
2023-11-24T00:07:56.355Z,86.60
2023-11-24T00:08:59.573Z,86.61
2023-11-24T00:10:02.550Z,86.57
2023-11-24T00:11:05.751Z,86.50
2023-11-24T00:12:08.399Z,86.47
2023-11-24T00:13:11.165Z,86.48
2023-11-24T00:14:14.050Z,86.38
2023-11-24T00:15:16.831Z,86.33
2023-11-24T00:16:19.580Z,86.32
2023-11-24T00:17:22.157Z,86.33
2023-11-24T00:18:24.546Z,86.33
2023-11-24T00:19:27.044Z,86.28
2023-11-24T00:20:30.367Z,86.25
2023-11-24T00:21:34.309Z,86.25
2023-11-24T00:22:36.902Z,86.31
2023-11-24T00:23:39.585Z,86.38
2023-11-24T00:24:42.037Z,86.49
2023-11-24T00:25:44.489Z,86.61
2023-11-24T00:26:46.999Z,86.67
2023-11-24T00:27:49.539Z,86.76
2023-11-24T00:28:53.159Z,86.81
2023-11-24T00:29:55.722Z,86.83
2023-11-24T00:30:58.315Z,86.86
2023-11-24T00:32:00.758Z,86.90
2023-11-24T00:33:03.476Z,86.95
2023-11-24T00:34:06.283Z,86.98
2023-11-24T00:35:09.479Z,86.94
2023-11-24T00:36:12.424Z,86.96
2023-11-24T00:37:15.339Z,86.93
2023-11-24T00:38:17.778Z,86.89
2023-11-24T00:39:20.187Z,86.87
2023-11-24T00:40:22.724Z,86.93
2023-11-24T00:41:25.263Z,86.89
2023-11-24T00:42:27.738Z,86.90
2023-11-24T00:43:31.250Z,86.90
2023-11-24T00:44:34.592Z,86.80
2023-11-24T00:45:37.173Z,86.76
2023-11-24T00:46:39.900Z,86.73
2023-11-24T00:47:42.600Z,86.72
2023-11-24T00:48:45.443Z,86.72
2023-11-24T00:49:47.880Z,86.73
2023-11-24T00:50:50.754Z,86.71
2023-11-24T00:51:53.658Z,86.69
2023-11-24T00:52:56.535Z,86.67
2023-11-24T00:53:59.072Z,86.67
2023-11-24T00:55:01.634Z,86.63
2023-11-24T00:56:04.887Z,86.56
2023-11-24T00:57:07.477Z,86.58
2023-11-24T00:58:09.979Z,86.51
2023-11-24T00:59:12.475Z,86.36
2023-11-24T01:00:16.243Z,86.32
2023-11-24T01:01:18.736Z,86.30
2023-11-24T01:02:21.532Z,86.22
2023-11-24T01:03:24.449Z,86.12
2023-11-24T01:04:27.708Z,86.11
2023-11-24T01:05:30.385Z,86.12
2023-11-24T01:06:33.164Z,86.00
2023-11-24T01:07:36.124Z,85.92
2023-11-24T01:08:39.014Z,85.82
2023-11-24T01:09:41.820Z,85.83
2023-11-24T01:10:44.910Z,85.77
2023-11-24T01:11:47.414Z,85.69
2023-11-24T01:12:49.934Z,85.51
2023-11-24T01:13:52.547Z,85.49
2023-11-24T01:14:55.115Z,85.53
2023-11-24T01:15:58.208Z,85.57
2023-11-24T01:17:01.083Z,85.58
2023-11-24T01:18:04.980Z,85.60
2023-11-24T01:19:07.733Z,85.61
2023-11-24T01:20:12.648Z,85.53
2023-11-24T01:21:15.393Z,85.43
2023-11-24T01:22:17.863Z,85.42
2023-11-24T01:23:20.263Z,85.40
2023-11-24T01:24:23.228Z,85.42
2023-11-24T01:25:25.804Z,85.37
2023-11-24T01:26:28.908Z,85.31
2023-11-24T01:27:31.523Z,85.33
2023-11-24T01:28:34.024Z,85.35
2023-11-24T01:29:36.604Z,85.41
2023-11-24T01:30:39.481Z,85.38
2023-11-24T01:31:41.950Z,85.40
2023-11-24T01:32:44.559Z,85.44
2023-11-24T01:33:47.301Z,85.40
2023-11-24T01:34:49.954Z,85.39
2023-11-24T01:35:52.502Z,85.35
2023-11-24T01:36:55.246Z,85.31
2023-11-24T01:37:57.744Z,85.28
2023-11-24T01:39:00.226Z,85.19
2023-11-24T01:40:04.291Z,85.15
2023-11-24T01:41:07.094Z,85.11
2023-11-24T01:42:09.644Z,85.11
2023-11-24T01:43:12.110Z,85.06
2023-11-24T01:44:14.701Z,85.05
2023-11-24T01:45:17.202Z,85.03
2023-11-24T01:46:19.973Z,85.06
2023-11-24T01:47:22.496Z,85.10
2023-11-24T01:48:25.163Z,85.21
2023-11-24T01:49:28.487Z,85.18
2023-11-24T01:50:31.718Z,85.27
2023-11-24T01:51:34.390Z,85.37
2023-11-24T01:52:37.023Z,85.41
2023-11-24T01:53:39.588Z,85.42
2023-11-24T01:54:42.304Z,85.49
2023-11-24T01:55:46.907Z,85.50
2023-11-24T01:56:49.677Z,85.44
2023-11-24T01:57:52.338Z,85.44
2023-11-24T01:58:55.736Z,85.46
2023-11-24T01:59:59.385Z,85.45
2023-11-24T02:01:02.052Z,85.45
2023-11-24T02:02:04.709Z,85.45
2023-11-24T02:03:07.691Z,85.40
2023-11-24T02:04:10.556Z,85.49
2023-11-24T02:05:13.386Z,85.52
2023-11-24T02:06:16.834Z,85.58
2023-11-24T02:07:19.341Z,85.65
2023-11-24T02:08:22.950Z,85.64
2023-11-24T02:09:25.466Z,85.64
2023-11-24T02:10:28.480Z,85.60
2023-11-24T02:11:31.247Z,85.59
2023-11-24T02:12:33.948Z,85.58
2023-11-24T02:13:36.686Z,85.56
2023-11-24T02:14:39.250Z,85.50
2023-11-24T02:15:41.877Z,85.49
2023-11-24T02:16:44.635Z,85.52
2023-11-24T02:17:47.261Z,85.57
2023-11-24T02:18:49.867Z,85.60
2023-11-24T02:19:52.721Z,85.54
2023-11-24T02:20:55.494Z,85.50
2023-11-24T02:21:58.058Z,85.51
2023-11-24T02:23:00.823Z,85.48
2023-11-24T02:24:04.005Z,85.43
2023-11-24T02:25:07.928Z,85.38
2023-11-24T02:26:11.693Z,85.31
2023-11-24T02:27:14.474Z,85.27
2023-11-24T02:28:16.991Z,85.23
2023-11-24T02:29:19.600Z,85.24
2023-11-24T02:30:23.128Z,85.19
2023-11-24T02:31:25.957Z,85.16
2023-11-24T02:32:28.435Z,85.07
2023-11-24T02:33:31.209Z,85.04
2023-11-24T02:34:33.746Z,84.98
2023-11-24T02:35:36.234Z,84.94
2023-11-24T02:36:38.895Z,84.84
2023-11-24T02:37:41.362Z,84.80
2023-11-24T02:38:44.340Z,84.77
2023-11-24T02:39:47.092Z,84.66
2023-11-24T02:40:49.984Z,84.59
2023-11-24T02:41:52.303Z,84.50
2023-11-24T02:42:54.883Z,84.49
2023-11-24T02:43:57.497Z,84.45
2023-11-24T02:44:59.958Z,84.51
2023-11-24T02:46:02.670Z,84.47
2023-11-24T02:47:05.841Z,84.43
2023-11-24T02:48:08.612Z,84.44
2023-11-24T02:49:11.232Z,84.38
2023-11-24T02:50:13.939Z,84.41
2023-11-24T02:51:16.290Z,84.38
2023-11-24T02:52:18.840Z,84.41
2023-11-24T02:53:21.416Z,84.43
2023-11-24T02:54:23.888Z,84.41
2023-11-24T02:55:26.554Z,84.37
2023-11-24T02:56:29.212Z,84.29
2023-11-24T02:57:31.647Z,84.22
2023-11-24T02:58:34.449Z,84.15
2023-11-24T02:59:36.923Z,84.12
2023-11-24T03:00:39.610Z,84.04
2023-11-24T03:01:42.203Z,84.01
2023-11-24T03:02:45.092Z,83.96
2023-11-24T03:03:47.720Z,83.90
2023-11-24T03:04:50.403Z,83.83
2023-11-24T03:05:53.035Z,83.78
2023-11-24T03:06:55.960Z,83.81
2023-11-24T03:07:58.542Z,83.80
2023-11-24T03:09:01.142Z,83.77
2023-11-24T03:10:04.868Z,83.74
2023-11-24T03:11:07.712Z,83.69
2023-11-24T03:12:10.582Z,83.58
2023-11-24T03:13:13.419Z,83.52
2023-11-24T03:14:16.497Z,83.45
2023-11-24T03:15:19.011Z,83.43
2023-11-24T03:16:21.654Z,83.39
2023-11-24T03:17:24.133Z,83.36
2023-11-24T03:18:26.710Z,83.20
2023-11-24T03:19:29.372Z,83.12
2023-11-24T03:20:32.029Z,83.09
2023-11-24T03:21:34.636Z,83.01
2023-11-24T03:22:37.175Z,83.01
2023-11-24T03:23:39.740Z,83.01
2023-11-24T03:24:42.234Z,83.03
2023-11-24T03:25:44.885Z,82.88
2023-11-24T03:26:47.650Z,82.89
2023-11-24T03:27:50.388Z,82.84
2023-11-24T03:28:52.884Z,82.89
2023-11-24T03:29:55.685Z,82.81
2023-11-24T03:30:58.327Z,82.72
2023-11-24T03:32:00.681Z,82.73
2023-11-24T03:33:03.195Z,82.59
2023-11-24T03:34:05.685Z,82.51
2023-11-24T03:35:08.712Z,82.48
2023-11-24T03:36:12.805Z,82.43
2023-11-24T03:37:15.369Z,82.28
2023-11-24T03:38:17.924Z,82.27
2023-11-24T03:39:20.396Z,82.27
2023-11-24T03:40:24.818Z,82.29
2023-11-24T03:41:27.188Z,82.27
2023-11-24T03:42:29.791Z,82.24
2023-11-24T03:43:32.266Z,82.18
2023-11-24T03:44:34.767Z,82.21
2023-11-24T03:45:37.767Z,82.22
2023-11-24T03:46:40.786Z,82.14
2023-11-24T03:47:43.127Z,82.08
2023-11-24T03:48:45.648Z,82.09
2023-11-24T03:49:48.228Z,81.99
2023-11-24T03:50:51.298Z,81.84
2023-11-24T03:51:53.874Z,81.70
2023-11-24T03:52:56.325Z,81.51
2023-11-24T03:53:58.998Z,81.44
2023-11-24T03:55:01.634Z,81.34
2023-11-24T03:56:05.053Z,81.26
2023-11-24T03:57:07.571Z,81.26
2023-11-24T03:58:10.113Z,81.26
2023-11-24T03:59:12.447Z,81.19
2023-11-24T04:00:16.616Z,81.00
2023-11-24T04:01:19.497Z,81.02
2023-11-24T04:02:41.804Z,81.05
2023-11-24T04:03:45.017Z,81.06
2023-11-24T04:04:47.536Z,80.87
2023-11-24T04:05:52.027Z,80.75
2023-11-24T04:06:54.809Z,80.63
2023-11-24T04:07:57.357Z,80.66
2023-11-24T04:08:59.932Z,80.71
2023-11-24T04:10:02.628Z,80.71
2023-11-24T04:11:05.572Z,80.65
2023-11-24T04:12:08.146Z,80.59
2023-11-24T04:13:10.706Z,80.49
2023-11-24T04:14:13.580Z,80.46
2023-11-24T04:15:16.181Z,80.44
2023-11-24T04:16:19.043Z,80.50
2023-11-24T04:17:21.998Z,80.41
2023-11-24T04:18:25.204Z,80.43
2023-11-24T04:19:27.745Z,80.45
2023-11-24T04:20:31.363Z,80.45
2023-11-24T04:21:34.015Z,80.45
2023-11-24T04:22:37.253Z,80.48
2023-11-24T04:23:39.756Z,80.47
2023-11-24T04:24:42.209Z,80.47
2023-11-24T04:25:44.784Z,80.41
2023-11-24T04:26:47.785Z,80.41
2023-11-24T04:27:50.213Z,80.25
2023-11-24T04:28:52.890Z,80.23
2023-11-24T04:29:55.491Z,80.18
2023-11-24T04:30:58.365Z,80.09
2023-11-24T04:32:00.804Z,80.03
2023-11-24T04:33:03.808Z,80.09
2023-11-24T04:34:06.334Z,80.12
2023-11-24T04:35:09.328Z,80.11
2023-11-24T04:36:12.213Z,79.99
2023-11-24T04:37:14.963Z,80.01
2023-11-24T04:38:17.533Z,80.08
2023-11-24T04:39:20.109Z,80.06
2023-11-24T04:40:22.736Z,80.06
2023-11-24T04:41:24.997Z,80.06
2023-11-24T04:42:27.419Z,80.04
2023-11-24T04:43:29.736Z,80.00
2023-11-24T04:44:32.336Z,79.97
2023-11-24T04:45:34.903Z,79.98
2023-11-24T04:46:37.641Z,79.99
2023-11-24T04:47:40.275Z,79.99
2023-11-24T04:48:43.060Z,79.97
2023-11-24T04:49:45.704Z,79.97
2023-11-24T04:50:48.135Z,79.93
2023-11-24T04:51:50.575Z,79.83
2023-11-24T04:52:52.860Z,79.92
2023-11-24T04:53:55.329Z,79.91
2023-11-24T04:54:57.891Z,79.87
2023-11-24T04:56:00.467Z,79.80
2023-11-24T04:57:03.137Z,79.87
2023-11-24T04:58:05.682Z,79.94
2023-11-24T04:59:08.278Z,79.89
2023-11-24T05:00:12.531Z,79.83
2023-11-24T05:01:15.216Z,79.83
2023-11-24T05:02:17.834Z,79.84
2023-11-24T05:03:20.323Z,79.91
2023-11-24T05:04:23.184Z,79.94
2023-11-24T05:05:25.607Z,79.90
2023-11-24T05:06:28.226Z,79.90
2023-11-24T05:07:30.893Z,79.95
2023-11-24T05:08:33.416Z,79.96
2023-11-24T05:09:35.898Z,79.95
2023-11-24T05:10:38.557Z,79.89
2023-11-24T05:11:40.972Z,79.87
2023-11-24T05:12:43.354Z,79.91
2023-11-24T05:13:46.014Z,79.92
2023-11-24T05:14:48.304Z,79.94
2023-11-24T05:15:51.346Z,80.02
2023-11-24T05:16:54.019Z,80.03
2023-11-24T05:17:56.354Z,79.98
2023-11-24T05:18:58.836Z,80.02
2023-11-24T05:20:03.286Z,79.98
2023-11-24T05:21:05.895Z,80.02
2023-11-24T05:22:08.345Z,79.99
2023-11-24T05:23:10.853Z,80.00
2023-11-24T05:24:13.281Z,80.03
2023-11-24T05:25:15.937Z,80.04
2023-11-24T05:26:18.658Z,80.00
2023-11-24T05:27:21.273Z,80.01
2023-11-24T05:28:23.626Z,79.98
2023-11-24T05:29:25.877Z,79.89
2023-11-24T05:30:28.581Z,79.94
2023-11-24T05:31:31.052Z,79.87
2023-11-24T05:32:33.615Z,79.90
2023-11-24T05:33:36.035Z,79.92
2023-11-24T05:34:38.620Z,79.91
2023-11-24T05:35:41.282Z,79.95
2023-11-24T05:36:43.829Z,79.98
2023-11-24T05:37:46.511Z,79.95
2023-11-24T05:38:48.780Z,79.89
2023-11-24T05:39:51.471Z,79.83
2023-11-24T05:40:54.125Z,79.81
2023-11-24T05:41:56.595Z,79.79
2023-11-24T05:42:58.889Z,79.79
2023-11-24T05:44:01.408Z,79.82
2023-11-24T05:45:04.900Z,79.78
2023-11-24T05:46:07.507Z,79.76
2023-11-24T05:47:10.133Z,79.82
2023-11-24T05:48:12.706Z,79.80
2023-11-24T05:49:15.166Z,79.78
2023-11-24T05:50:18.139Z,79.88
2023-11-24T05:51:21.155Z,79.84
2023-11-24T05:52:23.690Z,79.81
2023-11-24T05:53:26.125Z,79.77
2023-11-24T05:54:28.588Z,79.71
2023-11-24T05:55:31.050Z,79.78
2023-11-24T05:56:33.605Z,79.72
2023-11-24T05:57:36.078Z,79.61
2023-11-24T05:58:38.688Z,79.67
2023-11-24T05:59:41.242Z,79.71
2023-11-24T06:00:44.046Z,79.68
2023-11-24T06:01:46.563Z,79.66
2023-11-24T06:02:49.153Z,79.61
2023-11-24T06:03:51.832Z,79.74
2023-11-24T06:04:54.604Z,79.76
2023-11-24T06:05:57.579Z,79.87
2023-11-24T06:07:01.308Z,79.95
2023-11-24T06:08:04.634Z,80.01
2023-11-24T06:09:07.073Z,80.08
2023-11-24T06:10:10.808Z,80.07
2023-11-24T06:11:13.582Z,80.10
2023-11-24T06:12:16.147Z,80.10
2023-11-24T06:13:18.765Z,80.14
2023-11-24T06:14:21.256Z,80.06
2023-11-24T06:15:23.753Z,80.04
2023-11-24T06:16:26.429Z,79.88
2023-11-24T06:17:28.772Z,79.85
2023-11-24T06:18:31.900Z,79.88
2023-11-24T06:19:34.738Z,79.96
2023-11-24T06:20:37.343Z,79.94
2023-11-24T06:21:39.881Z,79.88
2023-11-24T06:22:42.860Z,79.89
2023-11-24T06:23:45.310Z,79.94
2023-11-24T06:24:47.767Z,79.81
2023-11-24T06:25:50.355Z,79.82
2023-11-24T06:26:52.864Z,79.89
2023-11-24T06:27:55.492Z,79.84
2023-11-24T06:28:58.008Z,79.87
2023-11-24T06:30:00.404Z,79.77
2023-11-24T06:31:03.135Z,79.79
2023-11-24T06:32:06.583Z,79.68
2023-11-24T06:33:09.073Z,79.72
2023-11-24T06:34:11.918Z,79.71
2023-11-24T06:35:14.691Z,79.64
2023-11-24T06:36:17.403Z,79.55
2023-11-24T06:37:20.023Z,79.47
2023-11-24T06:38:22.748Z,79.34
2023-11-24T06:39:25.513Z,79.21
2023-11-24T06:40:28.125Z,79.07
2023-11-24T06:41:30.654Z,78.97
2023-11-24T06:42:33.125Z,78.96
2023-11-24T06:43:35.841Z,78.87
2023-11-24T06:44:38.248Z,78.53
2023-11-24T06:45:40.769Z,78.38
2023-11-24T06:46:43.442Z,78.27
2023-11-24T06:47:45.952Z,78.32
2023-11-24T06:48:48.725Z,78.31
2023-11-24T06:49:51.182Z,78.21
2023-11-24T06:50:53.793Z,78.15
2023-11-24T06:51:56.620Z,78.03
2023-11-24T06:52:59.441Z,77.93
2023-11-24T06:54:02.314Z,77.92
2023-11-24T06:55:05.378Z,77.95
2023-11-24T06:56:08.843Z,77.72
2023-11-24T06:57:11.356Z,77.74
2023-11-24T06:58:13.939Z,77.72
2023-11-24T06:59:17.589Z,77.73
2023-11-24T07:00:20.899Z,77.74
2023-11-24T07:01:30.446Z,77.68
2023-11-24T07:02:34.917Z,77.69
2023-11-24T07:03:37.763Z,77.56
2023-11-24T07:04:40.602Z,77.55
2023-11-24T07:05:43.150Z,77.55
2023-11-24T07:06:46.007Z,77.55
2023-11-24T07:07:48.580Z,77.63
2023-11-24T07:08:51.256Z,77.51
2023-11-24T07:09:54.156Z,77.36
2023-11-24T07:10:56.747Z,77.44
2023-11-24T07:11:59.365Z,77.45
2023-11-24T07:13:01.892Z,77.35
2023-11-24T07:14:04.542Z,77.20
2023-11-24T07:15:07.889Z,77.20
2023-11-24T07:16:12.027Z,77.34
2023-11-24T07:17:14.661Z,77.19
2023-11-24T07:18:17.165Z,77.21
2023-11-24T07:19:19.882Z,77.26
2023-11-24T07:20:22.915Z,77.25
2023-11-24T07:21:28.919Z,77.08
2023-11-24T07:22:31.485Z,76.93
2023-11-24T07:23:34.046Z,76.73
2023-11-24T07:24:39.792Z,76.72
2023-11-24T07:25:42.670Z,76.71
2023-11-24T07:26:45.643Z,76.67
2023-11-24T07:27:50.208Z,76.60
2023-11-24T07:28:52.937Z,76.35
2023-11-24T07:29:55.394Z,76.38
2023-11-24T07:30:57.992Z,76.46
2023-11-24T07:32:02.168Z,76.23
2023-11-24T07:33:04.769Z,76.03
2023-11-24T07:34:07.498Z,76.05
2023-11-24T07:35:10.306Z,76.02
2023-11-24T07:36:13.149Z,75.94
2023-11-24T07:37:15.623Z,75.54
2023-11-24T07:38:18.087Z,75.31
2023-11-24T07:39:21.160Z,75.12
2023-11-24T07:40:23.878Z,75.17
2023-11-24T07:41:26.501Z,75.20
2023-11-24T07:42:29.067Z,75.16
2023-11-24T07:43:31.741Z,75.13
2023-11-24T07:44:34.316Z,75.10
2023-11-24T07:45:36.929Z,74.65
2023-11-24T07:46:39.684Z,74.17
2023-11-24T07:47:42.440Z,74.21
2023-11-24T07:48:45.033Z,74.30
2023-11-24T07:49:47.551Z,74.15
2023-11-24T07:50:50.065Z,74.44
2023-11-24T07:51:52.555Z,74.17
2023-11-24T07:52:57.775Z,74.33
2023-11-24T07:53:59.451Z,74.23
2023-11-24T07:55:01.943Z,74.02
2023-11-24T07:56:04.886Z,73.99
2023-11-24T07:57:07.879Z,74.13
2023-11-24T07:58:10.747Z,74.09
2023-11-24T07:59:13.322Z,74.09
2023-11-24T08:00:18.205Z,74.24
2023-11-24T08:01:20.789Z,74.23
2023-11-24T08:02:23.518Z,74.27
2023-11-24T08:03:26.127Z,74.48
2023-11-24T08:04:28.714Z,74.41
2023-11-24T08:05:31.489Z,74.27
2023-11-24T08:06:34.775Z,74.23
2023-11-24T08:07:37.088Z,74.15
2023-11-24T08:08:39.348Z,74.30
2023-11-24T08:09:41.792Z,74.24
2023-11-24T08:10:44.320Z,74.08
2023-11-24T08:11:46.990Z,74.03
2023-11-24T08:12:49.821Z,74.23
2023-11-24T08:13:52.235Z,73.90
2023-11-24T08:14:54.602Z,73.81
2023-11-24T08:15:57.162Z,73.80
2023-11-24T08:17:00.056Z,73.94
2023-11-24T08:18:02.660Z,74.10
2023-11-24T08:19:05.176Z,74.24
2023-11-24T08:20:09.118Z,74.19
2023-11-24T08:21:11.687Z,73.75
2023-11-24T08:22:14.683Z,73.67
2023-11-24T08:23:17.406Z,73.53
2023-11-24T08:24:19.864Z,73.29
2023-11-24T08:25:22.307Z,72.78
2023-11-24T08:26:24.897Z,72.62
2023-11-24T08:27:27.347Z,72.52
2023-11-24T08:28:31.965Z,72.55
2023-11-24T08:29:34.587Z,72.53
2023-11-24T08:30:37.798Z,72.24
2023-11-24T08:31:40.274Z,71.92
2023-11-24T08:32:45.455Z,72.01
2023-11-24T08:33:47.311Z,71.84
2023-11-24T08:34:49.806Z,72.01
2023-11-24T08:35:52.288Z,71.92
2023-11-24T08:36:54.928Z,71.56
2023-11-24T08:37:57.268Z,71.60
2023-11-24T08:38:59.750Z,71.13
2023-11-24T08:40:03.267Z,71.12
2023-11-24T08:41:21.130Z,71.35
2023-11-24T08:42:17.874Z,71.10
2023-11-24T08:43:20.443Z,71.04
2023-11-24T08:44:23.379Z,71.16
2023-11-24T08:45:25.894Z,71.14
2023-11-24T08:46:28.931Z,70.81
2023-11-24T08:47:31.708Z,70.52
2023-11-24T08:48:35.759Z,70.35
2023-11-24T08:49:38.599Z,70.32
2023-11-24T08:50:41.465Z,70.53
2023-11-24T08:51:44.189Z,70.28
2023-11-24T08:52:46.978Z,70.24
2023-11-24T08:53:49.563Z,70.40
2023-11-24T08:54:52.511Z,70.33
2023-11-24T08:55:57.376Z,70.31
2023-11-24T08:57:00.207Z,69.93
2023-11-24T08:58:02.708Z,70.02
2023-11-24T08:59:05.201Z,70.24
2023-11-24T09:00:09.138Z,70.48
2023-11-24T09:01:14.969Z,69.87
2023-11-24T09:02:17.837Z,69.67
2023-11-24T09:03:20.838Z,69.58
2023-11-24T09:04:23.552Z,69.94
2023-11-24T09:05:26.331Z,70.06
2023-11-24T09:06:29.450Z,70.04
2023-11-24T09:07:31.915Z,69.82
2023-11-24T09:08:34.449Z,69.91
2023-11-24T09:09:37.039Z,69.85
2023-11-24T09:10:39.720Z,70.07
2023-11-24T09:11:42.195Z,70.05
2023-11-24T09:12:44.817Z,69.58
2023-11-24T09:13:49.668Z,69.41
2023-11-24T09:14:51.811Z,69.24
2023-11-24T09:15:54.279Z,68.95
2023-11-24T09:16:56.872Z,68.96
2023-11-24T09:17:59.232Z,69.16
2023-11-24T09:19:01.809Z,69.12
2023-11-24T09:20:05.716Z,69.21
2023-11-24T09:21:08.268Z,69.22
2023-11-24T09:22:11.277Z,69.20
2023-11-24T09:23:13.669Z,69.18
2023-11-24T09:24:16.188Z,69.28
2023-11-24T09:25:18.727Z,68.87
2023-11-24T09:26:21.403Z,68.70
2023-11-24T09:27:23.962Z,68.60
2023-11-24T09:28:26.526Z,68.64
2023-11-24T09:29:29.075Z,68.65
2023-11-24T09:30:31.889Z,68.54
2023-11-24T09:31:34.633Z,68.66
2023-11-24T09:32:37.135Z,68.65
2023-11-24T09:33:40.129Z,68.86
2023-11-24T09:34:42.748Z,68.78
2023-11-24T09:35:45.350Z,68.61
2023-11-24T09:36:48.027Z,68.75
2023-11-24T09:37:50.872Z,68.74
2023-11-24T09:38:53.183Z,68.73
2023-11-24T09:39:55.637Z,68.70
2023-11-24T09:41:06.830Z,68.54
2023-11-24T09:42:10.149Z,68.74
2023-11-24T09:43:12.835Z,68.96
2023-11-24T09:44:15.912Z,68.82
2023-11-24T09:45:20.659Z,68.86
2023-11-24T09:46:23.811Z,68.84
2023-11-24T09:47:28.147Z,68.50
2023-11-24T09:48:33.024Z,68.60
2023-11-24T09:49:35.694Z,68.66
2023-11-24T09:50:39.212Z,68.57
2023-11-24T09:51:42.577Z,67.82
2023-11-24T09:52:46.370Z,67.64
2023-11-24T09:53:49.583Z,67.56
2023-11-24T09:54:53.450Z,67.70
2023-11-24T09:55:56.006Z,67.85
2023-11-24T09:56:58.691Z,67.40
2023-11-24T09:58:01.202Z,67.40
2023-11-24T09:59:03.629Z,67.30
2023-11-24T10:00:07.645Z,67.56
2023-11-24T10:01:18.193Z,67.68
2023-11-24T10:02:23.160Z,67.84
2023-11-24T10:03:27.178Z,67.90
2023-11-24T10:04:29.476Z,67.77
2023-11-24T10:05:32.323Z,67.55
2023-11-24T10:06:36.502Z,67.31
2023-11-24T10:07:40.524Z,67.45
2023-11-24T10:08:43.508Z,67.67
2023-11-24T10:09:48.437Z,67.18
2023-11-24T10:10:51.091Z,67.17
2023-11-24T10:11:53.561Z,67.42
2023-11-24T10:12:57.599Z,67.58
2023-11-24T10:14:00.942Z,67.54
2023-11-24T10:15:04.232Z,67.50
2023-11-24T10:16:07.356Z,67.51
2023-11-24T10:17:13.370Z,67.26
2023-11-24T10:18:15.932Z,67.26
2023-11-24T10:19:21.958Z,67.64
2023-11-24T10:20:23.146Z,67.35
2023-11-24T10:21:30.731Z,66.77
2023-11-24T10:22:31.517Z,66.50
2023-11-24T10:23:34.875Z,66.59
2023-11-24T10:24:37.772Z,66.41
2023-11-24T10:25:40.370Z,66.47
2023-11-24T10:26:43.189Z,65.77
2023-11-24T10:27:45.816Z,65.66
2023-11-24T10:28:48.455Z,65.84
2023-11-24T10:29:51.721Z,65.68
2023-11-24T10:30:55.952Z,65.35
2023-11-24T10:32:00.668Z,65.56
2023-11-24T10:33:04.153Z,65.77
2023-11-24T10:34:06.762Z,65.40
2023-11-24T10:35:09.682Z,65.44
2023-11-24T10:36:12.802Z,65.59
2023-11-24T10:37:16.208Z,65.77
2023-11-24T10:38:19.372Z,65.73
2023-11-24T10:39:23.546Z,65.78
2023-11-24T10:40:26.612Z,66.14
2023-11-24T10:41:30.227Z,66.38
2023-11-24T10:42:33.517Z,66.12
2023-11-24T10:43:37.716Z,65.69
2023-11-24T10:44:42.067Z,66.02
2023-11-24T10:45:45.531Z,66.32
2023-11-24T10:46:49.383Z,66.69
2023-11-24T10:48:10.440Z,65.88
2023-11-24T10:50:33.925Z,64.81
2023-11-24T10:51:40.286Z,64.62
2023-11-24T10:52:58.564Z,64.21
2023-11-24T10:54:02.940Z,64.40
2023-11-24T10:56:17.845Z,63.44
2023-11-24T10:57:21.992Z,63.34
2023-11-24T10:58:24.639Z,63.49
2023-11-24T10:59:27.792Z,63.93
2023-11-24T11:00:43.144Z,63.87
2023-11-24T11:01:47.612Z,63.67
2023-11-24T11:02:50.491Z,62.85
2023-11-24T11:03:54.704Z,63.00
2023-11-24T11:05:06.742Z,62.22
2023-11-24T11:06:19.584Z,62.45
2023-11-24T11:08:54.535Z,62.75
2023-11-24T11:09:58.596Z,61.77
2023-11-24T11:12:37.404Z,61.11
2023-11-24T11:13:42.122Z,60.31
2023-11-24T11:14:44.890Z,60.51
2023-11-24T11:15:47.432Z,61.04
2023-11-24T11:16:53.028Z,61.28
2023-11-24T11:18:12.298Z,61.52
2023-11-24T11:19:31.992Z,61.71
2023-11-24T11:20:35.167Z,61.16
2023-11-24T11:21:37.730Z,61.17
2023-11-24T11:22:41.871Z,60.87
2023-11-24T11:23:44.482Z,60.69
2023-11-24T11:24:47.782Z,60.67
2023-11-24T11:25:50.621Z,60.62
2023-11-24T11:26:53.422Z,60.39
2023-11-24T11:27:55.897Z,60.24
2023-11-24T11:28:58.480Z,59.46
2023-11-24T11:30:00.938Z,59.76
2023-11-24T11:32:34.242Z,59.93
2023-11-24T11:33:36.832Z,60.09
2023-11-24T11:34:39.972Z,60.04
2023-11-24T11:35:43.140Z,59.90
2023-11-24T11:36:51.415Z,60.14
2023-11-24T11:37:58.885Z,59.77
2023-11-24T11:39:01.350Z,59.48
2023-11-24T11:40:14.137Z,59.59
2023-11-24T11:41:41.302Z,59.20
2023-11-24T11:42:54.376Z,59.36
2023-11-24T11:43:56.990Z,59.49
2023-11-24T11:45:05.964Z,59.85
2023-11-24T11:46:08.873Z,60.00
2023-11-24T11:47:15.733Z,60.72
2023-11-24T11:48:18.735Z,60.38
2023-11-24T11:49:21.745Z,60.72
2023-11-24T11:50:24.727Z,61.22
2023-11-24T11:51:28.263Z,61.16
2023-11-24T11:52:30.796Z,61.41
2023-11-24T11:53:35.886Z,60.36
2023-11-24T11:54:39.555Z,60.13
2023-11-24T11:55:42.165Z,60.85
2023-11-24T11:56:44.923Z,61.01
2023-11-24T11:59:04.476Z,60.58
2023-11-24T12:00:08.780Z,60.51
2023-11-24T12:01:11.499Z,60.46
2023-11-24T12:02:19.083Z,60.05
2023-11-24T12:03:22.882Z,60.40
2023-11-24T12:04:25.877Z,60.51
2023-11-24T12:05:28.261Z,59.13
2023-11-24T12:06:31.024Z,58.93
2023-11-24T12:07:33.588Z,58.96
2023-11-24T12:08:36.359Z,58.95
2023-11-24T12:09:39.042Z,58.08
2023-11-24T12:10:42.653Z,58.64
2023-11-24T12:11:45.300Z,59.05
2023-11-24T12:12:47.845Z,59.32
2023-11-24T12:13:51.983Z,59.50
2023-11-24T12:14:54.511Z,59.61
2023-11-24T12:15:57.173Z,59.28
2023-11-24T12:17:00.740Z,58.60
2023-11-24T12:18:03.829Z,58.86
2023-11-24T12:19:06.753Z,58.90
2023-11-24T12:20:12.591Z,59.11
2023-11-24T12:21:15.318Z,59.14
2023-11-24T12:22:18.307Z,59.21
2023-11-24T12:23:22.343Z,59.51
2023-11-24T12:25:37.451Z,59.52
2023-11-24T12:26:41.527Z,59.12
2023-11-24T12:27:44.493Z,58.93
2023-11-24T12:28:47.622Z,59.04
2023-11-24T12:29:50.243Z,59.07
2023-11-24T12:30:52.983Z,58.90
2023-11-24T12:31:56.174Z,59.31
2023-11-24T12:32:58.898Z,59.64
2023-11-24T12:34:01.432Z,59.71
2023-11-24T12:35:05.086Z,59.74
2023-11-24T12:36:08.674Z,59.85
2023-11-24T12:37:12.338Z,60.41
2023-11-24T12:38:16.544Z,60.53
2023-11-24T12:39:19.176Z,60.39
2023-11-24T12:40:22.312Z,60.43
2023-11-24T12:41:24.977Z,60.28
2023-11-24T12:42:30.665Z,60.15
2023-11-24T12:43:33.351Z,59.84
2023-11-24T12:44:35.892Z,60.15
2023-11-24T12:45:39.407Z,60.35
2023-11-24T12:46:42.335Z,60.66
2023-11-24T12:47:44.977Z,59.71
2023-11-24T12:48:47.709Z,59.70
2023-11-24T12:50:04.613Z,59.50
2023-11-24T12:51:07.483Z,59.09
2023-11-24T12:52:09.971Z,59.21
2023-11-24T12:53:12.713Z,58.96
2023-11-24T12:54:15.516Z,58.30
2023-11-24T12:55:18.078Z,58.48
2023-11-24T12:56:20.943Z,58.58
2023-11-24T12:57:24.007Z,58.64
2023-11-24T12:58:26.657Z,58.57
2023-11-24T12:59:29.155Z,58.08
2023-11-24T13:00:33.815Z,58.02
2023-11-24T13:01:37.684Z,58.04
2023-11-24T13:03:50.510Z,58.21
2023-11-24T13:04:53.268Z,57.75
2023-11-24T13:05:56.101Z,56.95
2023-11-24T13:06:59.443Z,56.36
2023-11-24T13:08:02.108Z,56.14
2023-11-24T13:09:04.792Z,56.34
2023-11-24T13:10:09.358Z,55.93
2023-11-24T13:11:11.933Z,56.19
2023-11-24T13:12:18.472Z,56.03
2023-11-24T13:13:19.022Z,56.03
2023-11-24T13:14:21.710Z,55.99
2023-11-24T13:15:24.236Z,56.29
2023-11-24T13:16:27.025Z,56.39
2023-11-24T13:17:30.207Z,56.41
2023-11-24T13:18:32.666Z,56.58
2023-11-24T13:19:36.739Z,56.54
2023-11-24T13:20:40.284Z,56.56
2023-11-24T13:21:42.830Z,56.42
2023-11-24T13:22:45.613Z,56.46
2023-11-24T13:23:48.172Z,56.79
2023-11-24T13:24:50.822Z,56.64
2023-11-24T13:25:53.383Z,56.88
2023-11-24T13:26:56.079Z,56.89
2023-11-24T13:27:58.865Z,57.00
2023-11-24T13:29:02.083Z,57.28
2023-11-24T13:30:06.468Z,56.87
2023-11-24T13:31:09.091Z,56.96
2023-11-24T13:32:11.825Z,57.08
2023-11-24T13:33:14.280Z,57.14
2023-11-24T13:34:16.896Z,57.17
2023-11-24T13:35:23.618Z,57.38
2023-11-24T13:36:26.599Z,57.22
2023-11-24T13:37:30.727Z,57.08
2023-11-24T13:38:34.319Z,57.37
2023-11-24T13:39:36.852Z,57.57
2023-11-24T13:40:39.418Z,57.89
2023-11-24T13:41:42.069Z,57.84
2023-11-24T13:42:44.468Z,57.83
2023-11-24T13:43:47.076Z,58.04
2023-11-24T13:44:49.594Z,58.00